sensor_id;sensor_type;location;lat;lon;timestamp;temperature;humidity
7447;DHT22;3765;47.962;7.952;2022-11-11T00:02:25;6.00;79.60
7447;DHT22;3765;47.962;7.952;2022-11-11T00:04:53;6.00;79.50
7447;DHT22;3765;47.962;7.952;2022-11-11T00:07:21;5.90;79.60
7447;DHT22;3765;47.962;7.952;2022-11-11T00:09:51;6.00;79.60
7447;DHT22;3765;47.962;7.952;2022-11-11T00:12:19;6.00;79.70
7447;DHT22;3765;47.962;7.952;2022-11-11T00:14:53;6.00;79.60
7447;DHT22;3765;47.962;7.952;2022-11-11T00:17:21;6.10;79.60
7447;DHT22;3765;47.962;7.952;2022-11-11T00:20:08;6.10;79.60
7447;DHT22;3765;47.962;7.952;2022-11-11T00:22:59;6.10;79.50
7447;DHT22;3765;47.962;7.952;2022-11-11T00:25:58;6.00;79.50
7447;DHT22;3765;47.962;7.952;2022-11-11T00:28:47;6.00;79.50
7447;DHT22;3765;47.962;7.952;2022-11-11T00:31:15;5.90;79.60
7447;DHT22;3765;47.962;7.952;2022-11-11T00:33:43;5.90;79.60
7447;DHT22;3765;47.962;7.952;2022-11-11T00:36:11;5.80;79.60
7447;DHT22;3765;47.962;7.952;2022-11-11T00:38:40;5.90;79.60
7447;DHT22;3765;47.962;7.952;2022-11-11T00:41:18;5.80;79.70
7447;DHT22;3765;47.962;7.952;2022-11-11T00:43:47;5.80;79.60
7447;DHT22;3765;47.962;7.952;2022-11-11T00:46:15;5.70;79.50
7447;DHT22;3765;47.962;7.952;2022-11-11T00:49:01;5.70;79.60
7447;DHT22;3765;47.962;7.952;2022-11-11T00:51:47;5.60;79.60
7447;DHT22;3765;47.962;7.952;2022-11-11T00:54:15;5.60;79.60
7447;DHT22;3765;47.962;7.952;2022-11-11T00:56:44;5.50;79.70
7447;DHT22;3765;47.962;7.952;2022-11-11T00:59:13;5.50;79.70
7447;DHT22;3765;47.962;7.952;2022-11-11T01:01:41;5.50;79.70
7447;DHT22;3765;47.962;7.952;2022-11-11T01:04:09;5.50;79.80
7447;DHT22;3765;47.962;7.952;2022-11-11T01:06:38;5.50;79.70
7447;DHT22;3765;47.962;7.952;2022-11-11T01:09:06;5.50;79.70
7447;DHT22;3765;47.962;7.952;2022-11-11T01:11:35;5.40;79.60
7447;DHT22;3765;47.962;7.952;2022-11-11T01:14:04;5.50;79.70
7447;DHT22;3765;47.962;7.952;2022-11-11T01:16:32;5.50;79.70
7447;DHT22;3765;47.962;7.952;2022-11-11T01:19:01;5.50;79.70
7447;DHT22;3765;47.962;7.952;2022-11-11T01:21:29;5.50;79.60
7447;DHT22;3765;47.962;7.952;2022-11-11T01:23:57;5.60;79.60
7447;DHT22;3765;47.962;7.952;2022-11-11T01:26:27;5.60;79.50
7447;DHT22;3765;47.962;7.952;2022-11-11T01:28:58;5.60;79.60
7447;DHT22;3765;47.962;7.952;2022-11-11T01:31:27;5.70;79.60
7447;DHT22;3765;47.962;7.952;2022-11-11T01:33:55;5.60;79.60
7447;DHT22;3765;47.962;7.952;2022-11-11T01:36:26;5.70;79.50
7447;DHT22;3765;47.962;7.952;2022-11-11T01:38:55;5.70;79.50
7447;DHT22;3765;47.962;7.952;2022-11-11T01:41:26;5.60;79.40
7447;DHT22;3765;47.962;7.952;2022-11-11T01:44:02;5.60;79.40
7447;DHT22;3765;47.962;7.952;2022-11-11T01:46:44;5.50;79.40
7447;DHT22;3765;47.962;7.952;2022-11-11T01:49:28;5.40;79.40
7447;DHT22;3765;47.962;7.952;2022-11-11T01:52:01;5.40;79.30
7447;DHT22;3765;47.962;7.952;2022-11-11T01:54:36;5.30;79.40
7447;DHT22;3765;47.962;7.952;2022-11-11T01:57:10;5.20;79.50
7447;DHT22;3765;47.962;7.952;2022-11-11T01:59:43;5.10;79.40
7447;DHT22;3765;47.962;7.952;2022-11-11T02:02:18;5.10;79.60
7447;DHT22;3765;47.962;7.952;2022-11-11T02:04:48;5.10;79.70
7447;DHT22;3765;47.962;7.952;2022-11-11T02:07:34;5.00;79.60
7447;DHT22;3765;47.962;7.952;2022-11-11T02:10:05;5.00;79.60
7447;DHT22;3765;47.962;7.952;2022-11-11T02:12:35;5.00;79.60
7447;DHT22;3765;47.962;7.952;2022-11-11T02:15:20;4.90;79.60
7447;DHT22;3765;47.962;7.952;2022-11-11T02:17:50;5.00;79.60
7447;DHT22;3765;47.962;7.952;2022-11-11T02:20:21;5.00;79.60
7447;DHT22;3765;47.962;7.952;2022-11-11T02:22:54;5.00;79.70
7447;DHT22;3765;47.962;7.952;2022-11-11T02:25:29;5.10;79.50
7447;DHT22;3765;47.962;7.952;2022-11-11T02:28:00;5.10;79.50
7447;DHT22;3765;47.962;7.952;2022-11-11T02:30:30;5.10;79.50
7447;DHT22;3765;47.962;7.952;2022-11-11T02:32:59;5.10;79.50
7447;DHT22;3765;47.962;7.952;2022-11-11T02:35:31;5.00;79.50
7447;DHT22;3765;47.962;7.952;2022-11-11T02:38:01;5.00;79.50
7447;DHT22;3765;47.962;7.952;2022-11-11T02:40:36;5.00;79.70
7447;DHT22;3765;47.962;7.952;2022-11-11T02:43:25;5.00;79.70
7447;DHT22;3765;47.962;7.952;2022-11-11T02:45:55;5.00;79.80
7447;DHT22;3765;47.962;7.952;2022-11-11T02:48:23;5.10;79.80
7447;DHT22;3765;47.962;7.952;2022-11-11T02:50:52;5.00;79.70
7447;DHT22;3765;47.962;7.952;2022-11-11T02:53:21;5.00;79.70
7447;DHT22;3765;47.962;7.952;2022-11-11T02:55:51;4.90;79.80
7447;DHT22;3765;47.962;7.952;2022-11-11T02:58:19;4.90;79.80
7447;DHT22;3765;47.962;7.952;2022-11-11T03:00:48;4.90;79.80
7447;DHT22;3765;47.962;7.952;2022-11-11T03:03:16;4.80;79.90
7447;DHT22;3765;47.962;7.952;2022-11-11T03:05:44;4.80;79.90
7447;DHT22;3765;47.962;7.952;2022-11-11T03:08:13;4.80;79.90
7447;DHT22;3765;47.962;7.952;2022-11-11T03:10:41;4.80;80.00
7447;DHT22;3765;47.962;7.952;2022-11-11T03:13:10;4.80;79.80
7447;DHT22;3765;47.962;7.952;2022-11-11T03:15:39;4.80;80.10
7447;DHT22;3765;47.962;7.952;2022-11-11T03:18:09;4.80;80.10
7447;DHT22;3765;47.962;7.952;2022-11-11T03:20:36;4.80;80.20
7447;DHT22;3765;47.962;7.952;2022-11-11T03:23:18;4.80;80.20
7447;DHT22;3765;47.962;7.952;2022-11-11T03:25:47;4.80;80.10
7447;DHT22;3765;47.962;7.952;2022-11-11T03:28:21;4.80;80.10
7447;DHT22;3765;47.962;7.952;2022-11-11T03:30:50;4.80;80.10
7447;DHT22;3765;47.962;7.952;2022-11-11T03:33:18;4.80;80.10
7447;DHT22;3765;47.962;7.952;2022-11-11T03:35:47;4.80;80.10
7447;DHT22;3765;47.962;7.952;2022-11-11T03:38:15;4.80;80.10
7447;DHT22;3765;47.962;7.952;2022-11-11T03:40:50;4.70;80.10
7447;DHT22;3765;47.962;7.952;2022-11-11T03:43:21;4.70;80.10
7447;DHT22;3765;47.962;7.952;2022-11-11T03:45:51;4.80;80.10
7447;DHT22;3765;47.962;7.952;2022-11-11T03:48:20;4.80;80.10
7447;DHT22;3765;47.962;7.952;2022-11-11T03:50:49;4.80;80.20
7447;DHT22;3765;47.962;7.952;2022-11-11T03:53:18;4.70;80.20
7447;DHT22;3765;47.962;7.952;2022-11-11T03:55:48;4.80;80.20
7447;DHT22;3765;47.962;7.952;2022-11-11T03:58:17;4.70;80.20
7447;DHT22;3765;47.962;7.952;2022-11-11T04:00:46;4.60;80.30
7447;DHT22;3765;47.962;7.952;2022-11-11T04:03:16;4.60;80.20
7447;DHT22;3765;47.962;7.952;2022-11-11T04:06:13;4.60;80.40
7447;DHT22;3765;47.962;7.952;2022-11-11T04:08:59;4.60;80.30
7447;DHT22;3765;47.962;7.952;2022-11-11T04:11:45;4.60;80.30
7447;DHT22;3765;47.962;7.952;2022-11-11T04:14:14;4.60;80.30
7447;DHT22;3765;47.962;7.952;2022-11-11T04:16:58;4.60;80.40
7447;DHT22;3765;47.962;7.952;2022-11-11T04:19:26;4.60;80.20
7447;DHT22;3765;47.962;7.952;2022-11-11T04:22:12;4.60;80.30
7447;DHT22;3765;47.962;7.952;2022-11-11T04:24:40;4.60;80.30
7447;DHT22;3765;47.962;7.952;2022-11-11T04:27:26;4.60;80.30
7447;DHT22;3765;47.962;7.952;2022-11-11T04:29:54;4.60;80.30
7447;DHT22;3765;47.962;7.952;2022-11-11T04:32:22;4.60;80.30
7447;DHT22;3765;47.962;7.952;2022-11-11T04:35:07;4.60;80.30
7447;DHT22;3765;47.962;7.952;2022-11-11T04:37:44;4.60;80.30
7447;DHT22;3765;47.962;7.952;2022-11-11T04:40:12;4.60;80.30
7447;DHT22;3765;47.962;7.952;2022-11-11T04:42:58;4.60;80.30
7447;DHT22;3765;47.962;7.952;2022-11-11T04:45:26;4.60;80.30
7447;DHT22;3765;47.962;7.952;2022-11-11T04:47:57;4.60;80.40
7447;DHT22;3765;47.962;7.952;2022-11-11T04:50:28;4.50;80.40
7447;DHT22;3765;47.962;7.952;2022-11-11T04:52:57;4.50;80.40
7447;DHT22;3765;47.962;7.952;2022-11-11T04:55:25;4.50;80.50
7447;DHT22;3765;47.962;7.952;2022-11-11T04:58:11;4.50;80.40
7447;DHT22;3765;47.962;7.952;2022-11-11T05:00:40;4.60;80.50
7447;DHT22;3765;47.962;7.952;2022-11-11T05:03:10;4.60;80.50
7447;DHT22;3765;47.962;7.952;2022-11-11T05:05:47;4.60;80.40
7447;DHT22;3765;47.962;7.952;2022-11-11T05:08:34;4.50;80.40
7447;DHT22;3765;47.962;7.952;2022-11-11T05:11:21;4.60;80.50
7447;DHT22;3765;47.962;7.952;2022-11-11T05:13:50;4.60;80.50
7447;DHT22;3765;47.962;7.952;2022-11-11T05:16:37;4.60;80.50
7447;DHT22;3765;47.962;7.952;2022-11-11T05:19:25;4.60;80.50
7447;DHT22;3765;47.962;7.952;2022-11-11T05:22:15;4.60;80.50
7447;DHT22;3765;47.962;7.952;2022-11-11T05:24:44;4.60;80.50
7447;DHT22;3765;47.962;7.952;2022-11-11T05:27:29;4.50;80.50
7447;DHT22;3765;47.962;7.952;2022-11-11T05:29:57;4.50;80.50
7447;DHT22;3765;47.962;7.952;2022-11-11T05:32:26;4.50;80.50
7447;DHT22;3765;47.962;7.952;2022-11-11T05:34:55;4.50;80.50
7447;DHT22;3765;47.962;7.952;2022-11-11T05:37:23;4.50;80.50
7447;DHT22;3765;47.962;7.952;2022-11-11T05:39:52;4.40;80.30
7447;DHT22;3765;47.962;7.952;2022-11-11T05:42:20;4.40;80.50
7447;DHT22;3765;47.962;7.952;2022-11-11T05:44:48;4.40;80.60
7447;DHT22;3765;47.962;7.952;2022-11-11T05:47:16;4.40;80.70
7447;DHT22;3765;47.962;7.952;2022-11-11T05:49:45;4.40;80.60
7447;DHT22;3765;47.962;7.952;2022-11-11T05:52:15;4.50;80.60
7447;DHT22;3765;47.962;7.952;2022-11-11T05:54:44;4.40;80.60
7447;DHT22;3765;47.962;7.952;2022-11-11T05:57:12;4.40;80.70
7447;DHT22;3765;47.962;7.952;2022-11-11T05:59:40;4.50;80.60
7447;DHT22;3765;47.962;7.952;2022-11-11T06:02:10;4.40;80.50
7447;DHT22;3765;47.962;7.952;2022-11-11T06:04:38;4.40;80.60
7447;DHT22;3765;47.962;7.952;2022-11-11T06:07:06;4.40;80.70
7447;DHT22;3765;47.962;7.952;2022-11-11T06:09:36;4.50;80.90
7447;DHT22;3765;47.962;7.952;2022-11-11T06:12:04;4.60;80.80
7447;DHT22;3765;47.962;7.952;2022-11-11T06:14:32;4.70;80.80
7447;DHT22;3765;47.962;7.952;2022-11-11T06:17:00;4.70;80.70
7447;DHT22;3765;47.962;7.952;2022-11-11T06:19:29;4.80;80.80
7447;DHT22;3765;47.962;7.952;2022-11-11T06:21:57;4.80;80.70
7447;DHT22;3765;47.962;7.952;2022-11-11T06:24:26;4.80;80.70
7447;DHT22;3765;47.962;7.952;2022-11-11T06:26:56;4.80;80.70
7447;DHT22;3765;47.962;7.952;2022-11-11T06:29:25;4.80;80.60
7447;DHT22;3765;47.962;7.952;2022-11-11T06:31:53;4.70;80.60
7447;DHT22;3765;47.962;7.952;2022-11-11T06:34:22;4.80;80.80
7447;DHT22;3765;47.962;7.952;2022-11-11T06:36:50;4.70;80.70
7447;DHT22;3765;47.962;7.952;2022-11-11T06:39:18;4.80;80.70
7447;DHT22;3765;47.962;7.952;2022-11-11T06:41:46;4.80;80.70
7447;DHT22;3765;47.962;7.952;2022-11-11T06:44:16;4.80;80.60
7447;DHT22;3765;47.962;7.952;2022-11-11T06:46:44;4.80;80.50
7447;DHT22;3765;47.962;7.952;2022-11-11T06:49:12;4.90;80.50
7447;DHT22;3765;47.962;7.952;2022-11-11T06:51:40;4.80;80.30
7447;DHT22;3765;47.962;7.952;2022-11-11T06:54:08;4.80;80.40
7447;DHT22;3765;47.962;7.952;2022-11-11T06:56:36;4.80;80.30
7447;DHT22;3765;47.962;7.952;2022-11-11T06:59:05;4.80;80.40
7447;DHT22;3765;47.962;7.952;2022-11-11T07:01:34;4.80;80.30
7447;DHT22;3765;47.962;7.952;2022-11-11T07:04:03;4.80;80.30
7447;DHT22;3765;47.962;7.952;2022-11-11T07:06:31;4.90;80.50
7447;DHT22;3765;47.962;7.952;2022-11-11T07:08:59;4.90;80.40
7447;DHT22;3765;47.962;7.952;2022-11-11T07:11:27;4.90;80.50
7447;DHT22;3765;47.962;7.952;2022-11-11T07:13:58;4.90;80.50
7447;DHT22;3765;47.962;7.952;2022-11-11T07:16:27;5.00;80.60
7447;DHT22;3765;47.962;7.952;2022-11-11T07:18:56;5.20;80.60
7447;DHT22;3765;47.962;7.952;2022-11-11T07:21:24;5.20;80.50
7447;DHT22;3765;47.962;7.952;2022-11-11T07:23:53;5.30;80.40
7447;DHT22;3765;47.962;7.952;2022-11-11T07:26:21;5.30;80.50
7447;DHT22;3765;47.962;7.952;2022-11-11T07:28:49;5.30;80.50
7447;DHT22;3765;47.962;7.952;2022-11-11T07:31:18;5.40;80.40
7447;DHT22;3765;47.962;7.952;2022-11-11T07:33:46;5.50;80.40
7447;DHT22;3765;47.962;7.952;2022-11-11T07:36:16;5.70;80.30
7447;DHT22;3765;47.962;7.952;2022-11-11T07:38:50;5.70;80.10
7447;DHT22;3765;47.962;7.952;2022-11-11T07:41:18;5.80;80.10
7447;DHT22;3765;47.962;7.952;2022-11-11T07:43:47;5.90;80.10
7447;DHT22;3765;47.962;7.952;2022-11-11T07:46:15;6.10;80.10
7447;DHT22;3765;47.962;7.952;2022-11-11T07:48:43;6.30;80.00
7447;DHT22;3765;47.962;7.952;2022-11-11T07:51:11;6.30;80.00
7447;DHT22;3765;47.962;7.952;2022-11-11T07:53:41;6.40;79.80
7447;DHT22;3765;47.962;7.952;2022-11-11T07:56:09;6.50;80.00
7447;DHT22;3765;47.962;7.952;2022-11-11T07:58:37;6.60;79.90
7447;DHT22;3765;47.962;7.952;2022-11-11T08:01:05;6.80;79.80
7447;DHT22;3765;47.962;7.952;2022-11-11T08:03:35;6.90;79.60
7447;DHT22;3765;47.962;7.952;2022-11-11T08:06:16;6.90;79.50
7447;DHT22;3765;47.962;7.952;2022-11-11T08:08:46;7.10;79.40
7447;DHT22;3765;47.962;7.952;2022-11-11T08:11:15;7.30;79.30
7447;DHT22;3765;47.962;7.952;2022-11-11T08:13:43;7.40;79.20
7447;DHT22;3765;47.962;7.952;2022-11-11T08:16:12;7.50;79.10
7447;DHT22;3765;47.962;7.952;2022-11-11T08:18:41;7.60;79.00
7447;DHT22;3765;47.962;7.952;2022-11-11T08:21:10;7.70;78.80
7447;DHT22;3765;47.962;7.952;2022-11-11T08:23:38;7.80;78.60
7447;DHT22;3765;47.962;7.952;2022-11-11T08:26:27;7.80;78.50
7447;DHT22;3765;47.962;7.952;2022-11-11T08:28:56;8.10;78.30
7447;DHT22;3765;47.962;7.952;2022-11-11T08:31:25;8.20;78.00
7447;DHT22;3765;47.962;7.952;2022-11-11T08:33:53;8.30;77.90
7447;DHT22;3765;47.962;7.952;2022-11-11T08:36:22;8.40;77.70
7447;DHT22;3765;47.962;7.952;2022-11-11T08:38:51;8.50;77.70
7447;DHT22;3765;47.962;7.952;2022-11-11T08:41:20;8.70;77.60
7447;DHT22;3765;47.962;7.952;2022-11-11T08:43:52;8.80;77.50
7447;DHT22;3765;47.962;7.952;2022-11-11T08:46:21;8.90;77.20
7447;DHT22;3765;47.962;7.952;2022-11-11T08:48:53;9.00;77.10
7447;DHT22;3765;47.962;7.952;2022-11-11T08:51:23;9.10;76.90
7447;DHT22;3765;47.962;7.952;2022-11-11T08:53:52;9.30;76.70
7447;DHT22;3765;47.962;7.952;2022-11-11T08:56:20;9.40;76.50
7447;DHT22;3765;47.962;7.952;2022-11-11T08:58:48;9.50;76.30
7447;DHT22;3765;47.962;7.952;2022-11-11T09:01:19;9.70;76.10
7447;DHT22;3765;47.962;7.952;2022-11-11T09:03:48;9.80;75.80
7447;DHT22;3765;47.962;7.952;2022-11-11T09:06:16;9.90;75.70
7447;DHT22;3765;47.962;7.952;2022-11-11T09:08:44;10.00;75.50
7447;DHT22;3765;47.962;7.952;2022-11-11T09:11:12;10.00;74.90
7447;DHT22;3765;47.962;7.952;2022-11-11T09:13:41;9.80;74.70
7447;DHT22;3765;47.962;7.952;2022-11-11T09:16:09;9.90;75.00
7447;DHT22;3765;47.962;7.952;2022-11-11T09:18:39;10.10;74.80
7447;DHT22;3765;47.962;7.952;2022-11-11T09:21:07;10.10;74.60
7447;DHT22;3765;47.962;7.952;2022-11-11T09:23:35;10.20;74.40
7447;DHT22;3765;47.962;7.952;2022-11-11T09:26:04;10.20;74.20
7447;DHT22;3765;47.962;7.952;2022-11-11T09:28:32;10.40;74.10
7447;DHT22;3765;47.962;7.952;2022-11-11T09:31:00;10.40;73.90
7447;DHT22;3765;47.962;7.952;2022-11-11T09:33:50;10.50;73.80
7447;DHT22;3765;47.962;7.952;2022-11-11T09:36:19;10.60;73.80
7447;DHT22;3765;47.962;7.952;2022-11-11T09:38:48;10.80;73.60
7447;DHT22;3765;47.962;7.952;2022-11-11T09:41:21;10.80;73.50
7447;DHT22;3765;47.962;7.952;2022-11-11T09:43:53;10.90;73.30
7447;DHT22;3765;47.962;7.952;2022-11-11T09:46:31;11.00;73.20
7447;DHT22;3765;47.962;7.952;2022-11-11T09:49:32;11.10;73.10
7447;DHT22;3765;47.962;7.952;2022-11-11T09:52:08;11.20;72.90
7447;DHT22;3765;47.962;7.952;2022-11-11T09:54:44;11.20;72.80
7447;DHT22;3765;47.962;7.952;2022-11-11T09:57:21;11.40;72.60
7447;DHT22;3765;47.962;7.952;2022-11-11T09:59:52;11.60;72.30
7447;DHT22;3765;47.962;7.952;2022-11-11T10:02:29;11.70;72.00
7447;DHT22;3765;47.962;7.952;2022-11-11T10:05:06;11.80;71.80
7447;DHT22;3765;47.962;7.952;2022-11-11T10:07:39;11.90;71.60
7447;DHT22;3765;47.962;7.952;2022-11-11T10:10:17;11.90;71.50
7447;DHT22;3765;47.962;7.952;2022-11-11T10:12:52;11.90;71.40
7447;DHT22;3765;47.962;7.952;2022-11-11T10:15:21;11.90;71.40
7447;DHT22;3765;47.962;7.952;2022-11-11T10:18:18;11.80;71.40
7447;DHT22;3765;47.962;7.952;2022-11-11T10:20:54;11.80;71.40
7447;DHT22;3765;47.962;7.952;2022-11-11T10:23:28;11.90;71.70
7447;DHT22;3765;47.962;7.952;2022-11-11T10:26:01;12.00;71.40
7447;DHT22;3765;47.962;7.952;2022-11-11T10:28:35;12.00;71.10
7447;DHT22;3765;47.962;7.952;2022-11-11T10:31:11;12.00;71.30
7447;DHT22;3765;47.962;7.952;2022-11-11T10:33:45;12.10;71.30
7447;DHT22;3765;47.962;7.952;2022-11-11T10:36:18;12.10;71.20
7447;DHT22;3765;47.962;7.952;2022-11-11T10:38:50;12.00;71.40
7447;DHT22;3765;47.962;7.952;2022-11-11T10:41:25;12.10;71.50
7447;DHT22;3765;47.962;7.952;2022-11-11T10:43:54;11.90;71.10
7447;DHT22;3765;47.962;7.952;2022-11-11T10:46:25;11.90;70.80
7447;DHT22;3765;47.962;7.952;2022-11-11T10:48:57;12.00;71.30
7447;DHT22;3765;47.962;7.952;2022-11-11T10:51:32;12.20;71.20
7447;DHT22;3765;47.962;7.952;2022-11-11T10:54:05;12.30;71.20
7447;DHT22;3765;47.962;7.952;2022-11-11T10:56:40;12.40;71.20
7447;DHT22;3765;47.962;7.952;2022-11-11T10:59:16;12.40;71.10
7447;DHT22;3765;47.962;7.952;2022-11-11T11:01:53;12.40;71.10
7447;DHT22;3765;47.962;7.952;2022-11-11T11:04:30;12.30;70.90
7447;DHT22;3765;47.962;7.952;2022-11-11T11:07:04;12.40;71.30
7447;DHT22;3765;47.962;7.952;2022-11-11T11:09:36;12.50;71.10
7447;DHT22;3765;47.962;7.952;2022-11-11T11:12:10;12.40;70.90
7447;DHT22;3765;47.962;7.952;2022-11-11T11:14:42;12.40;71.20
7447;DHT22;3765;47.962;7.952;2022-11-11T11:17:16;12.30;71.40
7447;DHT22;3765;47.962;7.952;2022-11-11T11:20:07;12.40;71.60
7447;DHT22;3765;47.962;7.952;2022-11-11T11:22:47;12.30;72.00
7447;DHT22;3765;47.962;7.952;2022-11-11T11:25:17;12.30;72.30
7447;DHT22;3765;47.962;7.952;2022-11-11T11:27:46;12.30;72.20
7447;DHT22;3765;47.962;7.952;2022-11-11T11:30:18;12.30;72.30
7447;DHT22;3765;47.962;7.952;2022-11-11T11:32:56;12.30;72.40
7447;DHT22;3765;47.962;7.952;2022-11-11T11:35:36;12.20;72.30
7447;DHT22;3765;47.962;7.952;2022-11-11T11:38:09;12.20;72.50
7447;DHT22;3765;47.962;7.952;2022-11-11T11:40:45;12.30;72.40
7447;DHT22;3765;47.962;7.952;2022-11-11T11:43:34;12.30;72.50
7447;DHT22;3765;47.962;7.952;2022-11-11T11:46:13;12.50;72.60
7447;DHT22;3765;47.962;7.952;2022-11-11T11:48:53;12.50;72.50
7447;DHT22;3765;47.962;7.952;2022-11-11T11:51:32;12.70;72.40
7447;DHT22;3765;47.962;7.952;2022-11-11T11:54:21;12.70;71.90
7447;DHT22;3765;47.962;7.952;2022-11-11T11:56:55;12.70;72.10
7447;DHT22;3765;47.962;7.952;2022-11-11T11:59:30;12.80;72.00
7447;DHT22;3765;47.962;7.952;2022-11-11T12:02:05;12.80;71.80
7447;DHT22;3765;47.962;7.952;2022-11-11T12:05:12;13.10;71.80
7447;DHT22;3765;47.962;7.952;2022-11-11T12:07:57;13.30;71.40
7447;DHT22;3765;47.962;7.952;2022-11-11T12:10:38;13.20;71.00
7447;DHT22;3765;47.962;7.952;2022-11-11T12:13:20;13.00;70.80
7447;DHT22;3765;47.962;7.952;2022-11-11T12:15:57;13.20;71.00
7447;DHT22;3765;47.962;7.952;2022-11-11T12:19:00;13.30;70.90
7447;DHT22;3765;47.962;7.952;2022-11-11T12:21:37;13.30;70.70
7447;DHT22;3765;47.962;7.952;2022-11-11T12:24:16;13.30;70.70
7447;DHT22;3765;47.962;7.952;2022-11-11T12:26:57;13.30;70.40
7447;DHT22;3765;47.962;7.952;2022-11-11T12:29:38;13.30;70.60
7447;DHT22;3765;47.962;7.952;2022-11-11T12:32:29;13.40;70.60
7447;DHT22;3765;47.962;7.952;2022-11-11T12:38:08;13.70;70.30
7447;DHT22;3765;47.962;7.952;2022-11-11T12:40:47;13.80;70.20
7447;DHT22;3765;47.962;7.952;2022-11-11T12:43:28;13.80;69.80
7447;DHT22;3765;47.962;7.952;2022-11-11T12:46:08;13.80;69.70
7447;DHT22;3765;47.962;7.952;2022-11-11T12:48:53;13.90;69.70
7447;DHT22;3765;47.962;7.952;2022-11-11T12:51:34;13.90;69.20
7447;DHT22;3765;47.962;7.952;2022-11-11T12:54:14;13.90;69.20
7447;DHT22;3765;47.962;7.952;2022-11-11T12:56:47;13.80;69.00
7447;DHT22;3765;47.962;7.952;2022-11-11T12:59:26;14.00;69.30
7447;DHT22;3765;47.962;7.952;2022-11-11T13:02:10;14.20;68.80
7447;DHT22;3765;47.962;7.952;2022-11-11T13:04:51;14.00;68.60
7447;DHT22;3765;47.962;7.952;2022-11-11T13:07:56;14.20;68.70
7447;DHT22;3765;47.962;7.952;2022-11-11T13:10:33;14.30;68.30
7447;DHT22;3765;47.962;7.952;2022-11-11T13:13:29;14.30;68.30
7447;DHT22;3765;47.962;7.952;2022-11-11T13:16:00;14.30;68.10
7447;DHT22;3765;47.962;7.952;2022-11-11T13:18:39;14.20;68.10
7447;DHT22;3765;47.962;7.952;2022-11-11T13:21:13;14.10;68.10
7447;DHT22;3765;47.962;7.952;2022-11-11T13:23:43;14.20;68.00
7447;DHT22;3765;47.962;7.952;2022-11-11T13:26:27;14.30;67.90
7447;DHT22;3765;47.962;7.952;2022-11-11T13:29:15;14.20;68.10
7447;DHT22;3765;47.962;7.952;2022-11-11T13:31:48;14.30;68.00
7447;DHT22;3765;47.962;7.952;2022-11-11T13:34:18;14.30;67.80
7447;DHT22;3765;47.962;7.952;2022-11-11T13:36:50;14.30;68.00
7447;DHT22;3765;47.962;7.952;2022-11-11T13:39:24;14.40;68.00
7447;DHT22;3765;47.962;7.952;2022-11-11T13:41:55;14.40;67.90
7447;DHT22;3765;47.962;7.952;2022-11-11T13:44:27;14.40;67.70
7447;DHT22;3765;47.962;7.952;2022-11-11T13:47:03;14.40;67.40
7447;DHT22;3765;47.962;7.952;2022-11-11T13:49:35;14.30;67.50
7447;DHT22;3765;47.962;7.952;2022-11-11T13:52:17;14.30;67.60
7447;DHT22;3765;47.962;7.952;2022-11-11T13:54:57;14.30;67.60
7447;DHT22;3765;47.962;7.952;2022-11-11T13:57:28;14.30;67.80
7447;DHT22;3765;47.962;7.952;2022-11-11T14:00:00;14.30;67.90
7447;DHT22;3765;47.962;7.952;2022-11-11T14:02:33;14.30;67.80
7447;DHT22;3765;47.962;7.952;2022-11-11T14:05:18;14.20;67.60
7447;DHT22;3765;47.962;7.952;2022-11-11T14:07:50;14.30;67.70
7447;DHT22;3765;47.962;7.952;2022-11-11T14:10:54;14.40;67.70
7447;DHT22;3765;47.962;7.952;2022-11-11T14:13:39;14.60;67.70
7447;DHT22;3765;47.962;7.952;2022-11-11T14:19:32;14.80;67.70
7447;DHT22;3765;47.962;7.952;2022-11-11T14:22:29;14.80;67.40
7447;DHT22;3765;47.962;7.952;2022-11-11T14:25:25;14.70;67.40
7447;DHT22;3765;47.962;7.952;2022-11-11T14:27:54;14.80;67.60
7447;DHT22;3765;47.962;7.952;2022-11-11T14:30:34;15.00;67.10
7447;DHT22;3765;47.962;7.952;2022-11-11T14:33:07;15.20;67.00
7447;DHT22;3765;47.962;7.952;2022-11-11T14:35:46;15.30;66.70
7447;DHT22;3765;47.962;7.952;2022-11-11T14:38:29;15.40;66.30
7447;DHT22;3765;47.962;7.952;2022-11-11T14:47:27;15.20;65.90
7447;DHT22;3765;47.962;7.952;2022-11-11T14:49:58;15.00;66.30
7447;DHT22;3765;47.962;7.952;2022-11-11T14:52:33;14.90;66.40
7447;DHT22;3765;47.962;7.952;2022-11-11T14:55:13;14.60;66.50
7447;DHT22;3765;47.962;7.952;2022-11-11T14:57:46;14.50;66.80
7447;DHT22;3765;47.962;7.952;2022-11-11T15:00:17;14.50;66.90
7447;DHT22;3765;47.962;7.952;2022-11-11T15:02:50;14.40;67.20
7447;DHT22;3765;47.962;7.952;2022-11-11T15:05:26;14.30;67.30
7447;DHT22;3765;47.962;7.952;2022-11-11T15:08:18;14.20;67.50
7447;DHT22;3765;47.962;7.952;2022-11-11T15:11:05;14.00;67.80
7447;DHT22;3765;47.962;7.952;2022-11-11T15:13:54;13.80;68.10
7447;DHT22;3765;47.962;7.952;2022-11-11T15:16:48;13.80;68.40
7447;DHT22;3765;47.962;7.952;2022-11-11T15:19:47;13.60;68.70
7447;DHT22;3765;47.962;7.952;2022-11-11T15:22:39;13.50;68.90
7447;DHT22;3765;47.962;7.952;2022-11-11T15:25:34;13.40;69.10
7447;DHT22;3765;47.962;7.952;2022-11-11T15:28:13;13.20;69.40
7447;DHT22;3765;47.962;7.952;2022-11-11T15:30:58;13.00;69.90
7447;DHT22;3765;47.962;7.952;2022-11-11T15:33:41;12.80;70.30
7447;DHT22;3765;47.962;7.952;2022-11-11T15:36:16;12.60;70.70
7447;DHT22;3765;47.962;7.952;2022-11-11T15:38:45;12.50;71.00
7447;DHT22;3765;47.962;7.952;2022-11-11T15:41:23;12.30;71.40
7447;DHT22;3765;47.962;7.952;2022-11-11T15:43:59;12.10;71.80
7447;DHT22;3765;47.962;7.952;2022-11-11T15:46:30;11.90;72.00
7447;DHT22;3765;47.962;7.952;2022-11-11T15:49:00;11.80;72.30
7447;DHT22;3765;47.962;7.952;2022-11-11T15:51:31;11.70;72.60
7447;DHT22;3765;47.962;7.952;2022-11-11T15:54:20;11.60;72.80
7447;DHT22;3765;47.962;7.952;2022-11-11T15:56:50;11.40;73.00
7447;DHT22;3765;47.962;7.952;2022-11-11T15:59:22;11.30;73.40
7447;DHT22;3765;47.962;7.952;2022-11-11T16:01:51;11.10;73.50
7447;DHT22;3765;47.962;7.952;2022-11-11T16:04:21;11.10;73.80
7447;DHT22;3765;47.962;7.952;2022-11-11T16:07:17;11.00;74.00
7447;DHT22;3765;47.962;7.952;2022-11-11T16:09:47;10.80;74.00
7447;DHT22;3765;47.962;7.952;2022-11-11T16:12:21;10.70;74.20
7447;DHT22;3765;47.962;7.952;2022-11-11T16:14:53;10.60;74.50
7447;DHT22;3765;47.962;7.952;2022-11-11T16:17:28;10.50;74.60
7447;DHT22;3765;47.962;7.952;2022-11-11T16:19:57;10.40;74.70
7447;DHT22;3765;47.962;7.952;2022-11-11T16:22:29;10.30;74.70
7447;DHT22;3765;47.962;7.952;2022-11-11T16:24:59;10.10;74.90
7447;DHT22;3765;47.962;7.952;2022-11-11T16:27:32;10.00;75.10
7447;DHT22;3765;47.962;7.952;2022-11-11T16:30:17;10.10;75.20
7447;DHT22;3765;47.962;7.952;2022-11-11T16:32:45;10.10;75.30
7447;DHT22;3765;47.962;7.952;2022-11-11T16:35:25;9.90;75.30
7447;DHT22;3765;47.962;7.952;2022-11-11T16:37:54;9.90;75.40
7447;DHT22;3765;47.962;7.952;2022-11-11T16:40:36;9.90;75.40
7447;DHT22;3765;47.962;7.952;2022-11-11T16:43:18;9.90;75.30
7447;DHT22;3765;47.962;7.952;2022-11-11T16:45:51;9.70;75.20
7447;DHT22;3765;47.962;7.952;2022-11-11T16:48:43;9.50;75.50
7447;DHT22;3765;47.962;7.952;2022-11-11T16:51:18;9.40;75.80
7447;DHT22;3765;47.962;7.952;2022-11-11T16:53:51;9.40;75.90
7447;DHT22;3765;47.962;7.952;2022-11-11T16:56:24;9.50;75.90
7447;DHT22;3765;47.962;7.952;2022-11-11T16:59:03;9.40;75.80
7447;DHT22;3765;47.962;7.952;2022-11-11T17:01:40;9.30;76.00
7447;DHT22;3765;47.962;7.952;2022-11-11T17:04:10;9.20;76.20
7447;DHT22;3765;47.962;7.952;2022-11-11T17:06:51;9.10;76.10
7447;DHT22;3765;47.962;7.952;2022-11-11T17:09:36;9.10;76.30
7447;DHT22;3765;47.962;7.952;2022-11-11T17:12:06;9.00;76.40